Time;durP1;ratioP1;P1;durP2;ratioP2;P2;SDS_P1;SDS_P2;PMS_P1;PMS_P2;Temp;Humidity;BMP_temperature;BMP_pressure;BME280_temperature;BME280_humidity;BME280_pressure;Samples;Min_cycle;Max_cycle;Signal;HPM_P1;HPM_P2
2022/01/27 00:04:27;;;;;;;;;;;;;;;;;;4994308;28;752;-75
2022/01/27 00:06:53;;;;;;;;;;;;;;;;;;4993910;28;1225;-75
2022/01/27 00:11:46;;;;;;;;;;;;;;;;;;4994073;28;781;-75
2022/01/27 00:14:13;;;;;;;;;;;;;;;;;;4992924;28;846;-75
2022/01/27 00:16:41;;;;;;;;;;;;;;;;;;4992547;28;1911;-75
2022/01/27 00:19:08;;;;;;;;;;;;;;;;;;4993100;28;961;-75
2022/01/27 00:21:33;;;;;;;;;;;;;;;;;;4992944;28;874;-75
2022/01/27 00:23:58;;;;;;;;;;;;;;;;;;4993959;28;823;-75
2022/01/27 00:26:24;;;;;;;;;;;;;;;;;;4993519;28;1181;-75
2022/01/27 00:28:49;;;;;;;;;;;;;;;;;;4976340;28;804;-75
2022/01/27 00:31:18;;;;;;;;;;;;;;;;;;4992784;28;839;-75
2022/01/27 00:33:44;;;;;;;;;;;;;;;;;;4992759;28;951;-75
2022/01/27 00:36:09;;;;;;;;;;;;;;;;;;4992233;28;1965;-75
2022/01/27 00:38:34;;;;;;;;;;;;;;;;;;4993588;28;894;-75
2022/01/27 00:40:59;;;;;;;;;;;;;;;;;;4993719;28;954;-75
2022/01/27 00:43:25;;;;;;;;;;;;;;;;;;4991716;28;831;-75
2022/01/27 00:45:50;;;;;;;;;;;;;;;;;;4991968;28;1188;-75
2022/01/27 00:48:17;;;;;;;;;;;;;;;;;;4993746;28;902;-75
2022/01/27 00:50:43;;;;;;;;;;;;;;;;;;4993634;28;874;-75
2022/01/27 00:53:25;;;;;;;;;;;;;;;;;;4993632;28;779;-75
2022/01/27 00:55:51;;;;;;;;;;;;;;;;;;4993357;28;1220;-75
2022/01/27 01:01:17;;;;;;;;;;;;;;;;;;4949980;28;1261;-75
2022/01/27 01:03:45;;;;;;;;;;;;;;;;;;4993652;28;918;-74
2022/01/27 01:06:33;;;;;;;;;;;;;;;;;;4993343;28;1193;-75
2022/01/27 01:22:00;;;;;;;;;;;;;;;;;;4992566;28;854;-75
2022/01/27 01:29:27;;;;;;;;;;;;;;;;;;4993115;28;684;-75
2022/01/27 01:30:09;;;;;;;;;;;;;;;;;;4993229;28;968;-75
2022/01/27 01:35:00;;;;;;;;;;;;;;;;;;4993413;28;1161;-75
2022/01/27 01:37:25;;;;;;;;;;;;;;;;;;4991815;28;1902;-75
2022/01/27 01:39:51;;;;;;;;;;;;;;;;;;4993315;28;836;-75
2022/01/27 01:42:16;;;;;;;;;;;;;;;;;;4991936;28;939;-75
2022/01/27 01:44:41;;;;;;;;;;;;;;;;;;4993128;28;1204;-75
2022/01/27 01:47:07;;;;;;;;;;;;;;;;;;4993004;28;894;-75
2022/01/27 01:49:32;;;;;;;;;;;;;;;;;;4991777;28;815;-75
2022/01/27 01:51:59;;;;;;;;;;;;;;;;;;4993164;28;1072;-75
2022/01/27 01:54:24;;;;;;;;;;;;;;;;;;4993407;28;858;-75
2022/01/27 01:56:49;;;;;;;;;;;;;;;;;;4978810;28;1977;-75
2022/01/27 01:59:15;;;;;;;;;;;;;;;;;;4996514;28;865;-75
2022/01/27 02:01:40;;;;;;;;;;;;;;;;;;4996659;28;965;-75
2022/01/27 02:04:08;;;;;;;;;;;;;;;;;;4995401;28;831;-75
2022/01/27 02:06:39;;;;;;;;;;;;;;;;;;4996127;28;1295;-75
2022/01/27 02:19:42;;;;;;;;;;;;;;;;;;4996653;28;716;-75
2022/01/27 02:22:07;;;;;;;;;;;;;;;;;;4996349;28;893;-75
2022/01/27 02:24:33;;;;;;;;;;;;;;;;;;4996136;28;1064;-75
2022/01/27 02:26:59;;;;;;;;;;;;;;;;;;4994574;28;1221;-75
2022/01/27 02:29:24;;;;;;;;;;;;;;;;;;4995953;28;826;-75
2022/01/27 02:31:50;;;;;;;;;;;;;;;;;;4995000;28;980;-75
2022/01/27 02:34:15;;;;;;;;;;;;;;;;;;4995861;28;1017;-75
2022/01/27 02:36:41;;;;;;;;;;;;;;;;;;4995639;28;1902;-75
2022/01/27 02:39:07;;;;;;;;;;;;;;;;;;4994446;28;966;-75
2022/01/27 02:41:44;;;;;;;;;;;;;;;;;;4995874;28;854;-75
2022/01/27 02:44:09;;;;;;;;;;;;;;;;;;4995591;28;832;-75
2022/01/27 02:46:36;;;;;;;;;;;;;;;;;;4994301;28;1287;-75
2022/01/27 02:49:02;;;;;;;;;;;;;;;;;;4995593;28;1048;-75
2022/01/27 02:51:27;;;;;;;;;;;;;;;;;;4995805;28;847;-75
2022/01/27 02:53:52;;;;;;;;;;;;;;;;;;4994415;28;815;-75
2022/01/27 02:56:18;;;;;;;;;;;;;;;;;;4995163;28;1969;-75
2022/01/27 02:58:43;;;;;;;;;;;;;;;;;;4994068;28;922;-75
2022/01/27 03:01:10;;;;;;;;;;;;;;;;;;4995432;28;1009;-75
2022/01/27 03:03:35;;;;;;;;;;;;;;;;;;4995277;28;881;-75
2022/01/27 03:06:01;;;;;;;;;;;;;;;;;;4994767;28;1176;-75
2022/01/27 03:08:26;;;;;;;;;;;;;;;;;;4994760;28;847;-75
2022/01/27 03:10:58;;;;;;;;;;;;;;;;;;4995274;28;1002;-75
2022/01/27 03:13:23;;;;;;;;;;;;;;;;;;4995161;28;979;-75
2022/01/27 03:15:48;;;;;;;;;;;;;;;;;;4995022;28;1181;-75
2022/01/27 03:18:13;;;;;;;;;;;;;;;;;;4995106;28;1911;-75
2022/01/27 03:20:39;;;;;;;;;;;;;;;;;;4995059;28;1013;-75
2022/01/27 03:23:06;;;;;;;;;;;;;;;;;;4995033;28;835;-75
2022/01/27 03:25:31;;;;;;;;;;;;;;;;;;4994833;28;1169;-75
2022/01/27 03:27:56;;;;;;;;;;;;;;;;;;4994763;28;882;-75
2022/01/27 03:30:21;;;;;;;;;;;;;;;;;;4994925;28;1068;-75
2022/01/27 03:32:46;;;;;;;;;;;;;;;;;;4995004;28;887;-75
2022/01/27 03:35:12;;;;;;;;;;;;;;;;;;4994581;28;1268;-75
2022/01/27 03:37:37;;;;;;;;;;;;;;;;;;4996103;28;1969;-75
2022/01/27 03:40:02;;;;;;;;;;;;;;;;;;5012959;28;1451;-75
2022/01/27 03:42:29;;;;;;;;;;;;;;;;;;5014433;28;965;-75
2022/01/27 03:44:54;;;;;;;;;;;;;;;;;;5014073;28;1292;-75
2022/01/27 03:47:19;;;;;;;;;;;;;;;;;;5012932;28;883;-75
2022/01/27 03:49:44;;;;;;;;;;;;;;;;;;5014182;28;807;-75
2022/01/27 03:52:09;;;;;;;;;;;;;;;;;;5014148;28;1045;-75
2022/01/27 03:54:35;;;;;;;;;;;;;;;;;;5012660;28;1179;-75
2022/01/27 03:57:00;;;;;;;;;;;;;;;;;;5012419;28;1969;-75
2022/01/27 03:59:26;;;;;;;;;;;;;;;;;;5014017;28;861;-75
2022/01/27 04:01:51;;;;;;;;;;;;;;;;;;5013994;28;1011;-75
2022/01/27 04:04:17;;;;;;;;;;;;;;;;;;5013880;28;858;-75
2022/01/27 04:06:42;;;;;;;;;;;;;;;;;;5013631;28;1205;-75
2022/01/27 04:09:08;;;;;;;;;;;;;;;;;;5013919;28;865;-75
2022/01/27 04:11:33;;;;;;;;;;;;;;;;;;5014023;28;826;-75
2022/01/27 04:13:59;;;;;;;;;;;;;;;;;;5012718;28;1335;-75
2022/01/27 04:16:24;;;;;;;;;;;;;;;;;;5012199;28;1898;-75
2022/01/27 04:18:49;;;;;;;;;;;;;;;;;;5012163;28;1026;-76
2022/01/27 04:21:15;;;;;;;;;;;;;;;;;;5012527;28;823;-75
2022/01/27 04:23:40;;;;;;;;;;;;;;;;;;5013608;28;855;-75
2022/01/27 04:26:06;;;;;;;;;;;;;;;;;;5013554;28;1204;-75
2022/01/27 04:28:34;;;;;;;;;;;;;;;;;;5013457;28;886;-75
2022/01/27 04:31:02;;;;;;;;;;;;;;;;;;5013528;28;846;-75
2022/01/27 04:33:31;;;;;;;;;;;;;;;;;;5013588;28;929;-75
2022/01/27 04:36:03;;;;;;;;;;;;;;;;;;5013251;28;1251;-75
2022/01/27 04:38:45;;;;;;;;;;;;;;;;;;5013232;28;1965;-75
2022/01/27 04:41:18;;;;;;;;;;;;;;;;;;5013393;28;878;-75
2022/01/27 04:43:52;;;;;;;;;;;;;;;;;;5013538;28;858;-75
2022/01/27 04:46:37;;;;;;;;;;;;;;;;;;5013230;28;1316;-75
2022/01/27 04:49:04;;;;;;;;;;;;;;;;;;5013364;28;921;-75
2022/01/27 04:51:30;;;;;;;;;;;;;;;;;;5013366;28;830;-75
2022/01/27 04:54:02;;;;;;;;;;;;;;;;;;5013254;28;945;-75
2022/01/27 04:56:29;;;;;;;;;;;;;;;;;;5011749;28;1914;-75
2022/01/27 04:58:59;;;;;;;;;;;;;;;;;;5013365;28;902;-75
2022/01/27 05:01:32;;;;;;;;;;;;;;;;;;5012149;28;905;-75
2022/01/27 05:04:03;;;;;;;;;;;;;;;;;;5013219;28;862;-75
2022/01/27 05:06:28;;;;;;;;;;;;;;;;;;5013119;28;1185;-75
2022/01/27 05:08:54;;;;;;;;;;;;;;;;;;5011969;28;823;-75
2022/01/27 05:11:26;;;;;;;;;;;;;;;;;;5013094;28;925;-75
2022/01/27 05:14:04;;;;;;;;;;;;;;;;;;5012196;28;847;-75
2022/01/27 05:16:29;;;;;;;;;;;;;;;;;;5011813;28;1914;-75
2022/01/27 05:18:54;;;;;;;;;;;;;;;;;;5012885;28;895;-75
2022/01/27 05:21:20;;;;;;;;;;;;;;;;;;5013121;28;839;-75
2022/01/27 05:23:45;;;;;;;;;;;;;;;;;;5013076;28;1001;-75
2022/01/27 05:26:10;;;;;;;;;;;;;;;;;;5011317;28;1197;-75
2022/01/27 05:28:36;;;;;;;;;;;;;;;;;;5012965;28;965;-75
2022/01/27 05:31:01;;;;;;;;;;;;;;;;;;5015161;28;1069;-75
2022/01/27 05:33:26;;;;;;;;;;;;;;;;;;5016762;28;858;-75
2022/01/27 05:35:52;;;;;;;;;;;;;;;;;;5016435;28;1176;-75
2022/01/27 05:38:17;;;;;;;;;;;;;;;;;;5016496;28;1906;-75
2022/01/27 05:40:43;;;;;;;;;;;;;;;;;;5016484;28;842;-75
2022/01/27 05:43:08;;;;;;;;;;;;;;;;;;5015359;28;945;-75
2022/01/27 05:45:33;;;;;;;;;;;;;;;;;;5016218;28;1194;-75
2022/01/27 05:47:58;;;;;;;;;;;;;;;;;;5016659;28;1021;-75
2022/01/27 05:50:23;;;;;;;;;;;;;;;;;;5016416;28;898;-75
2022/01/27 05:52:49;;;;;;;;;;;;;;;;;;5016646;28;797;-75
2022/01/27 05:55:14;;;;;;;;;;;;;;;;;;5015996;28;1189;-75
2022/01/27 05:57:39;;;;;;;;;;;;;;;;;;5016235;28;1906;-75
2022/01/27 06:00:05;;;;;;;;;;;;;;;;;;5016144;28;894;-75
2022/01/27 06:02:30;;;;;;;;;;;;;;;;;;5016268;28;815;-75
2022/01/27 06:04:55;;;;;;;;;;;;;;;;;;5015773;28;1184;-75
2022/01/27 06:07:20;;;;;;;;;;;;;;;;;;5016272;28;851;-75
2022/01/27 06:09:45;;;;;;;;;;;;;;;;;;5015926;28;933;-75
2022/01/27 06:12:11;;;;;;;;;;;;;;;;;;5016046;28;807;-75
2022/01/27 06:14:36;;;;;;;;;;;;;;;;;;5015728;28;1263;-75
2022/01/27 06:17:01;;;;;;;;;;;;;;;;;;5014323;28;1973;-75
2022/01/27 06:19:28;;;;;;;;;;;;;;;;;;5016059;28;890;-75
2022/01/27 06:21:53;;;;;;;;;;;;;;;;;;5015764;28;925;-75
2022/01/27 06:24:18;;;;;;;;;;;;;;;;;;5014572;28;894;-75
2022/01/27 06:26:43;;;;;;;;;;;;;;;;;;5015426;28;1201;-75
2022/01/27 06:29:09;;;;;;;;;;;;;;;;;;5015843;28;800;-75
2022/01/27 06:31:34;;;;;;;;;;;;;;;;;;5015578;28;760;-75
2022/01/27 06:33:59;;;;;;;;;;;;;;;;;;5015745;28;792;-75
2022/01/27 06:36:24;;;;;;;;;;;;;;;;;;5013824;28;1902;-75
2022/01/27 06:38:49;;;;;;;;;;;;;;;;;;5015390;28;902;-75
2022/01/27 06:41:15;;;;;;;;;;;;;;;;;;5015272;28;1008;-75
2022/01/27 06:43:40;;;;;;;;;;;;;;;;;;5014260;28;851;-75
2022/01/27 06:46:05;;;;;;;;;;;;;;;;;;5015022;28;1208;-75
2022/01/27 06:48:30;;;;;;;;;;;;;;;;;;5015421;28;907;-75
2022/01/27 06:50:56;;;;;;;;;;;;;;;;;;5015061;28;1065;-75
2022/01/27 06:53:21;;;;;;;;;;;;;;;;;;5015382;28;900;-75
2022/01/27 06:55:47;;;;;;;;;;;;;;;;;;5014933;28;1177;-75
2022/01/27 06:58:12;;;;;;;;;;;;;;;;;;5013855;28;1906;-75
2022/01/27 07:00:37;;;;;;;;;;;;;;;;;;5014846;28;961;-75
2022/01/27 07:03:03;;;;;;;;;;;;;;;;;;5013959;28;807;-75
2022/01/27 07:05:31;;;;;;;;;;;;;;;;;;5013459;28;1204;-75
2022/01/27 07:07:56;;;;;;;;;;;;;;;;;;5014982;28;779;-75
2022/01/27 07:10:21;;;;;;;;;;;;;;;;;;5014903;28;926;-75
2022/01/27 07:12:46;;;;;;;;;;;;;;;;;;5015363;28;966;-75
2022/01/27 07:15:12;;;;;;;;;;;;;;;;;;5015069;28;1221;-75
2022/01/27 07:17:37;;;;;;;;;;;;;;;;;;5014732;28;1902;-75
2022/01/27 07:20:02;;;;;;;;;;;;;;;;;;5009812;28;1073;-75
2022/01/27 07:22:30;;;;;;;;;;;;;;;;;;4993837;28;828;-75
2022/01/27 07:24:55;;;;;;;;;;;;;;;;;;4994781;28;1118;-75
2022/01/27 07:27:20;;;;;;;;;;;;;;;;;;4994975;28;887;-75
2022/01/27 07:29:46;;;;;;;;;;;;;;;;;;4994836;28;866;-75
2022/01/27 07:32:11;;;;;;;;;;;;;;;;;;4994882;28;831;-75
2022/01/27 07:34:36;;;;;;;;;;;;;;;;;;4994801;28;1189;-75
2022/01/27 07:37:02;;;;;;;;;;;;;;;;;;4994423;28;1911;-75
2022/01/27 07:39:28;;;;;;;;;;;;;;;;;;4995278;28;842;-75
2022/01/27 07:41:53;;;;;;;;;;;;;;;;;;4994548;28;1064;-75
2022/01/27 07:44:18;;;;;;;;;;;;;;;;;;4994671;28;875;-75
2022/01/27 07:46:43;;;;;;;;;;;;;;;;;;4994441;28;1303;-75
2022/01/27 07:49:08;;;;;;;;;;;;;;;;;;4994599;28;950;-75
2022/01/27 07:51:34;;;;;;;;;;;;;;;;;;4994466;28;1013;-75
2022/01/27 07:53:59;;;;;;;;;;;;;;;;;;4992935;28;854;-75
2022/01/27 07:56:24;;;;;;;;;;;;;;;;;;4992844;28;1898;-75
2022/01/27 07:58:49;;;;;;;;;;;;;;;;;;4993344;28;807;-75
2022/01/27 08:01:14;;;;;;;;;;;;;;;;;;4993105;28;823;-75
2022/01/27 08:03:40;;;;;;;;;;;;;;;;;;4993040;28;1477;-75
2022/01/27 08:06:05;;;;;;;;;;;;;;;;;;4993885;28;1185;-75
2022/01/27 08:08:30;;;;;;;;;;;;;;;;;;4993134;28;831;-75
2022/01/27 08:10:56;;;;;;;;;;;;;;;;;;4992989;28;776;-75
2022/01/27 08:13:21;;;;;;;;;;;;;;;;;;4994059;28;851;-75
2022/01/27 08:15:46;;;;;;;;;;;;;;;;;;4993828;28;1192;-75
2022/01/27 08:18:11;;;;;;;;;;;;;;;;;;4993924;28;1906;-75
2022/01/27 08:20:37;;;;;;;;;;;;;;;;;;4993887;28;938;-75
2022/01/27 08:23:03;;;;;;;;;;;;;;;;;;4994149;28;830;-75
2022/01/27 08:25:29;;;;;;;;;;;;;;;;;;4992675;28;1283;-75
2022/01/27 08:27:56;;;;;;;;;;;;;;;;;;4993858;28;862;-75
2022/01/27 08:30:25;;;;;;;;;;;;;;;;;;4993953;28;855;-75
2022/01/27 08:32:58;;;;;;;;;;;;;;;;;;4993902;28;914;-75
2022/01/27 08:35:24;;;;;;;;;;;;;;;;;;4993621;28;1319;-75
2022/01/27 08:37:49;;;;;;;;;;;;;;;;;;4993601;28;1914;-75
2022/01/27 08:40:15;;;;;;;;;;;;;;;;;;4993756;28;823;-75
2022/01/27 08:42:40;;;;;;;;;;;;;;;;;;4992611;28;792;-75
2022/01/27 08:45:13;;;;;;;;;;;;;;;;;;4993487;28;1255;-75
2022/01/27 08:47:38;;;;;;;;;;;;;;;;;;4993676;28;926;-75
2022/01/27 08:50:05;;;;;;;;;;;;;;;;;;4993688;28;847;-75
2022/01/27 08:52:30;;;;;;;;;;;;;;;;;;4993637;28;815;-76
2022/01/27 08:54:55;;;;;;;;;;;;;;;;;;4992152;28;1122;-75
2022/01/27 08:57:21;;;;;;;;;;;;;;;;;;4993558;28;1923;-75
2022/01/27 08:59:47;;;;;;;;;;;;;;;;;;4993817;28;918;-75
2022/01/27 09:02:12;;;;;;;;;;;;;;;;;;4993548;28;824;-75
2022/01/27 09:04:39;;;;;;;;;;;;;;;;;;4992455;28;1264;-76
2022/01/27 09:07:04;;;;;;;;;;;;;;;;;;4997525;28;859;-75
2022/01/27 09:09:29;;;;;;;;;;;;;;;;;;4997544;28;991;-75
2022/01/27 09:11:56;;;;;;;;;;;;;;;;;;4997511;28;914;-75
2022/01/27 09:14:22;;;;;;;;;;;;;;;;;;4997599;28;823;-75
2022/01/27 09:16:47;;;;;;;;;;;;;;;;;;4995980;28;1964;-75
2022/01/27 09:19:12;;;;;;;;;;;;;;;;;;4997521;28;843;-75
2022/01/27 09:21:46;;;;;;;;;;;;;;;;;;4997410;28;877;-75
2022/01/27 09:24:16;;;;;;;;;;;;;;;;;;4997205;28;897;-75
2022/01/27 09:29:14;;;;;;;;;;;;;;;;;;4996191;28;806;-75
2022/01/27 09:31:39;;;;;;;;;;;;;;;;;;4996013;28;827;-75
2022/01/27 09:34:04;;;;;;;;;;;;;;;;;;4995726;28;942;-75
2022/01/27 09:36:29;;;;;;;;;;;;;;;;;;4996721;28;1898;-75
2022/01/27 09:38:55;;;;;;;;;;;;;;;;;;4994633;28;1291;-75
2022/01/27 09:41:20;;;;;;;;;;;;;;;;;;4994454;28;1056;-75
2022/01/27 09:43:52;;;;;;;;;;;;;;;;;;4994515;28;847;-75
2022/01/27 09:46:19;;;;;;;;;;;;;;;;;;4995519;28;1303;-75
2022/01/27 09:48:47;;;;;;;;;;;;;;;;;;4995683;28;905;-75
2022/01/27 09:51:37;;;;;;;;;;;;;;;;;;4995566;28;858;-75
2022/01/27 09:54:02;;;;;;;;;;;;;;;;;;4995605;28;839;-75
2022/01/27 09:56:28;;;;;;;;;;;;;;;;;;4994078;28;1899;-75
2022/01/27 09:58:53;;;;;;;;;;;;;;;;;;4995638;28;887;-75
2022/01/27 10:01:18;;;;;;;;;;;;;;;;;;4995470;28;890;-75
2022/01/27 10:03:55;;;;;;;;;;;;;;;;;;4995323;28;1057;-75
2022/01/27 10:06:22;;;;;;;;;;;;;;;;;;4995132;28;1169;-75
2022/01/27 10:09:06;;;;;;;;;;;;;;;;;;4994077;28;878;-75
2022/01/27 10:11:31;;;;;;;;;;;;;;;;;;4995195;28;878;-75
2022/01/27 10:13:58;;;;;;;;;;;;;;;;;;4993943;28;1370;-75
2022/01/27 10:16:27;;;;;;;;;;;;;;;;;;4994471;28;1283;-75
2022/01/27 10:19:02;;;;;;;;;;;;;;;;;;4995010;28;1907;-75
2022/01/27 10:21:31;;;;;;;;;;;;;;;;;;4994026;28;1072;-75
2022/01/27 10:23:57;;;;;;;;;;;;;;;;;;4995089;28;826;-75
2022/01/27 10:26:25;;;;;;;;;;;;;;;;;;4993635;28;1189;-75
2022/01/27 10:29:01;;;;;;;;;;;;;;;;;;4994955;28;870;-75
2022/01/27 10:31:27;;;;;;;;;;;;;;;;;;4995022;28;859;-75
2022/01/27 10:33:53;;;;;;;;;;;;;;;;;;4993608;28;1279;-75
2022/01/27 10:36:20;;;;;;;;;;;;;;;;;;4994655;28;1228;-75
2022/01/27 10:38:46;;;;;;;;;;;;;;;;;;4966963;28;1085814;-75
2022/01/27 10:41:11;;;;;;;;;;;;;;;;;;5015486;28;870;-75
2022/01/27 10:43:36;;;;;;;;;;;;;;;;;;5014215;28;869;-75
2022/01/27 10:46:11;;;;;;;;;;;;;;;;;;5015151;28;1204;-75
2022/01/27 10:48:52;;;;;;;;;;;;;;;;;;5015313;28;936;-75
2022/01/27 10:51:25;;;;;;;;;;;;;;;;;;5015386;28;838;-75
2022/01/27 10:54:03;;;;;;;;;;;;;;;;;;5015209;28;866;-75
2022/01/27 10:56:30;;;;;;;;;;;;;;;;;;5015109;28;1248;-75
2022/01/27 10:58:56;;;;;;;;;;;;;;;;;;5013839;28;1953;-76
2022/01/27 11:01:22;;;;;;;;;;;;;;;;;;5013987;28;847;-75
2022/01/27 11:03:55;;;;;;;;;;;;;;;;;;5013861;28;894;-75
2022/01/27 11:06:23;;;;;;;;;;;;;;;;;;5013507;28;1195;-75
2022/01/27 11:08:48;;;;;;;;;;;;;;;;;;5013747;28;830;-75
2022/01/27 11:11:13;;;;;;;;;;;;;;;;;;5014863;28;792;-76
2022/01/27 11:13:39;;;;;;;;;;;;;;;;;;5014794;28;901;-76
2022/01/27 11:16:11;;;;;;;;;;;;;;;;;;5014551;28;1189;-76
2022/01/27 11:18:37;;;;;;;;;;;;;;;;;;5013595;28;1901;-76
2022/01/27 11:21:09;;;;;;;;;;;;;;;;;;5013541;28;818;-76
2022/01/27 11:26:10;;;;;;;;;;;;;;;;;;5013224;28;1339;-76
2022/01/27 11:28:36;;;;;;;;;;;;;;;;;;5013834;28;905;-75
2022/01/27 11:31:03;;;;;;;;;;;;;;;;;;5013354;28;807;-76
2022/01/27 11:33:30;;;;;;;;;;;;;;;;;;5014240;28;842;-76
2022/01/27 11:36:04;;;;;;;;;;;;;;;;;;5013076;28;1212;-76
2022/01/27 11:38:29;;;;;;;;;;;;;;;;;;5014135;28;1913;-75
2022/01/27 11:40:54;;;;;;;;;;;;;;;;;;5014210;28;1083;-76
2022/01/27 11:43:24;;;;;;;;;;;;;;;;;;5012869;28;868;-75
2022/01/27 11:45:51;;;;;;;;;;;;;;;;;;5012609;28;1333;-75
2022/01/27 11:48:22;;;;;;;;;;;;;;;;;;5014524;28;807;-76
2022/01/27 11:50:52;;;;;;;;;;;;;;;;;;5014113;28;796;-75
2022/01/27 11:53:31;;;;;;;;;;;;;;;;;;5014196;28;826;-76
2022/01/27 11:55:57;;;;;;;;;;;;;;;;;;5012793;28;1204;-76
2022/01/27 11:58:23;;;;;;;;;;;;;;;;;;5012761;28;1910;-76
2022/01/27 12:01:00;;;;;;;;;;;;;;;;;;5012788;28;839;-76
2022/01/27 12:03:26;;;;;;;;;;;;;;;;;;5013884;28;875;-75
2022/01/27 12:06:17;;;;;;;;;;;;;;;;;;5013542;28;1283;-76
2022/01/27 12:08:42;;;;;;;;;;;;;;;;;;5010796;28;1008;-76
2022/01/27 12:11:10;;;;;;;;;;;;;;;;;;5013779;28;800;-76
2022/01/27 12:13:40;;;;;;;;;;;;;;;;;;5013703;28;846;-76
2022/01/27 12:18:49;;;;;;;;;;;;;;;;;;5012547;28;1890;-76
2022/01/27 12:21:31;;;;;;;;;;;;;;;;;;4995829;28;1235;-76
2022/01/27 12:26:46;;;;;;;;;;;;;;;;;;5013686;28;1174;-76
2022/01/27 12:29:12;;;;;;;;;;;;;;;;;;5012410;28;933;-76
2022/01/27 12:31:39;;;;;;;;;;;;;;;;;;5012445;28;1300;-76
2022/01/27 12:34:04;;;;;;;;;;;;;;;;;;5012154;28;867;-76
2022/01/27 12:36:29;;;;;;;;;;;;;;;;;;5013250;28;1197;-75
2022/01/27 12:38:54;;;;;;;;;;;;;;;;;;5013231;28;1902;-76
2022/01/27 12:41:20;;;;;;;;;;;;;;;;;;5013535;28;942;-76
2022/01/27 12:43:46;;;;;;;;;;;;;;;;;;5013334;28;1045;-76
2022/01/27 12:46:11;;;;;;;;;;;;;;;;;;5013161;28;1254;-76
2022/01/27 12:48:43;;;;;;;;;;;;;;;;;;5013300;28;839;-76
2022/01/27 12:51:08;;;;;;;;;;;;;;;;;;5012160;28;780;-76
2022/01/27 12:53:34;;;;;;;;;;;;;;;;;;5013037;28;875;-76
2022/01/27 12:56:07;;;;;;;;;;;;;;;;;;5012909;28;1180;-76
2022/01/27 12:58:33;;;;;;;;;;;;;;;;;;5013290;28;1902;-76
2022/01/27 13:00:58;;;;;;;;;;;;;;;;;;5011929;28;867;-76
2022/01/27 13:03:24;;;;;;;;;;;;;;;;;;5012184;28;795;-76
2022/01/27 13:05:50;;;;;;;;;;;;;;;;;;5012986;28;1200;-76
2022/01/27 13:08:19;;;;;;;;;;;;;;;;;;5012235;28;869;-76
2022/01/27 13:10:45;;;;;;;;;;;;;;;;;;5013122;28;893;-76
2022/01/27 13:13:14;;;;;;;;;;;;;;;;;;5013140;28;807;-76
2022/01/27 13:15:39;;;;;;;;;;;;;;;;;;5011740;28;1270;-76
2022/01/27 13:18:12;;;;;;;;;;;;;;;;;;5013106;28;1899;-76
2022/01/27 13:20:43;;;;;;;;;;;;;;;;;;5011915;28;886;-76
2022/01/27 13:25:45;;;;;;;;;;;;;;;;;;5012005;28;1195;-76
2022/01/27 13:28:24;;;;;;;;;;;;;;;;;;5012975;28;893;-76
2022/01/27 13:30:51;;;;;;;;;;;;;;;;;;5012334;28;835;-76
2022/01/27 13:33:17;;;;;;;;;;;;;;;;;;5011710;28;858;-76
2022/01/27 13:35:43;;;;;;;;;;;;;;;;;;5011351;28;1159;-76
2022/01/27 13:38:08;;;;;;;;;;;;;;;;;;5011723;28;1906;-76
2022/01/27 13:43:38;;;;;;;;;;;;;;;;;;4989628;28;1146;-76
2022/01/27 13:46:03;;;;;;;;;;;;;;;;;;5012501;28;1193;-76
2022/01/27 13:48:28;;;;;;;;;;;;;;;;;;5011575;28;1072;-77
2022/01/27 13:50:55;;;;;;;;;;;;;;;;;;5013251;28;879;-76
2022/01/27 13:53:20;;;;;;;;;;;;;;;;;;5015236;28;890;-76
2022/01/27 13:55:55;;;;;;;;;;;;;;;;;;5014868;28;1216;-76
2022/01/27 13:58:28;;;;;;;;;;;;;;;;;;5015250;28;1902;-76
2022/01/27 14:01:07;;;;;;;;;;;;;;;;;;5015105;28;1057;-76
2022/01/27 14:03:39;;;;;;;;;;;;;;;;;;5015157;28;811;-76
2022/01/27 14:06:05;;;;;;;;;;;;;;;;;;5016044;28;1176;-76
2022/01/27 14:08:38;;;;;;;;;;;;;;;;;;5014927;28;815;-76
2022/01/27 14:11:03;;;;;;;;;;;;;;;;;;5014829;28;950;-76
2022/01/27 14:13:28;;;;;;;;;;;;;;;;;;5014832;28;827;-76
2022/01/27 14:15:54;;;;;;;;;;;;;;;;;;5015452;28;1167;-76
2022/01/27 14:18:41;;;;;;;;;;;;;;;;;;5015921;28;1969;-76
2022/01/27 14:21:06;;;;;;;;;;;;;;;;;;5015845;28;886;-76
2022/01/27 14:23:31;;;;;;;;;;;;;;;;;;5014578;28;811;-76
2022/01/27 14:26:01;;;;;;;;;;;;;;;;;;5015649;28;1187;-76
2022/01/27 14:28:26;;;;;;;;;;;;;;;;;;5015727;28;811;-76
2022/01/27 14:30:51;;;;;;;;;;;;;;;;;;5015871;28;1033;-77
2022/01/27 14:33:16;;;;;;;;;;;;;;;;;;5015794;28;899;-76
2022/01/27 14:35:44;;;;;;;;;;;;;;;;;;5015325;28;1165;-76
2022/01/27 14:38:10;;;;;;;;;;;;;;;;;;5014177;28;1967;-76
2022/01/27 14:40:35;;;;;;;;;;;;;;;;;;5014442;28;799;-76
2022/01/27 14:43:02;;;;;;;;;;;;;;;;;;5014266;28;788;-76
2022/01/27 14:45:28;;;;;;;;;;;;;;;;;;5015060;28;1287;-76
2022/01/27 14:47:59;;;;;;;;;;;;;;;;;;5015548;28;890;-76
2022/01/27 14:50:24;;;;;;;;;;;;;;;;;;5015476;28;823;-76
2022/01/27 14:52:51;;;;;;;;;;;;;;;;;;5014108;28;894;-76
2022/01/27 14:55:17;;;;;;;;;;;;;;;;;;4999599;28;1268;-76
2022/01/27 14:57:42;;;;;;;;;;;;;;;;;;4977954;28;1910;-76
2022/01/27 15:00:08;;;;;;;;;;;;;;;;;;4994507;28;1327;-76
2022/01/27 15:02:35;;;;;;;;;;;;;;;;;;4994385;28;803;-76
2022/01/27 15:05:00;;;;;;;;;;;;;;;;;;4993909;28;1181;-76
2022/01/27 15:07:25;;;;;;;;;;;;;;;;;;4994267;28;861;-76
2022/01/27 15:09:51;;;;;;;;;;;;;;;;;;4995724;28;950;-76
2022/01/27 15:12:16;;;;;;;;;;;;;;;;;;4995231;28;807;-76
2022/01/27 15:20:11;;;;;;;;;;;;;;;;;;4995298;28;618;-76
2022/01/27 15:22:36;;;;;;;;;;;;;;;;;;4993861;28;855;-76
2022/01/27 15:25:02;;;;;;;;;;;;;;;;;;4994664;28;1272;-76
2022/01/27 15:27:27;;;;;;;;;;;;;;;;;;4994988;28;969;-76
2022/01/27 15:29:53;;;;;;;;;;;;;;;;;;4995080;28;985;-76
2022/01/27 15:32:21;;;;;;;;;;;;;;;;;;4995021;28;870;-76
2022/01/27 15:34:46;;;;;;;;;;;;;;;;;;4994850;28;1189;-76
2022/01/27 15:37:13;;;;;;;;;;;;;;;;;;4994482;28;1969;-76
2022/01/27 15:39:43;;;;;;;;;;;;;;;;;;4993669;28;965;-76
2022/01/27 15:42:11;;;;;;;;;;;;;;;;;;4994743;28;843;-76
2022/01/27 15:44:36;;;;;;;;;;;;;;;;;;4994728;28;1205;-76
2022/01/27 15:47:01;;;;;;;;;;;;;;;;;;4994548;28;1073;-76
2022/01/27 15:49:26;;;;;;;;;;;;;;;;;;4994702;28;993;-76
2022/01/27 15:51:51;;;;;;;;;;;;;;;;;;4994544;28;1052;-76
2022/01/27 15:54:17;;;;;;;;;;;;;;;;;;4994428;28;846;-76
2022/01/27 15:56:42;;;;;;;;;;;;;;;;;;4994047;28;1264;-76
2022/01/27 15:59:07;;;;;;;;;;;;;;;;;;4994605;28;863;-76
2022/01/27 16:01:32;;;;;;;;;;;;;;;;;;4994511;28;845;-76
2022/01/27 16:03:58;;;;;;;;;;;;;;;;;;4994419;28;847;-76
2022/01/27 16:06:23;;;;;;;;;;;;;;;;;;4994075;28;1257;-76
2022/01/27 16:08:48;;;;;;;;;;;;;;;;;;4994688;28;897;-76
2022/01/27 16:11:13;;;;;;;;;;;;;;;;;;4994708;28;911;-77
2022/01/27 16:13:39;;;;;;;;;;;;;;;;;;4993961;28;791;-77
2022/01/27 16:16:04;;;;;;;;;;;;;;;;;;4992716;28;1201;-77
2022/01/27 16:18:29;;;;;;;;;;;;;;;;;;4992964;28;1894;-76
2022/01/27 16:20:55;;;;;;;;;;;;;;;;;;4994087;28;899;-76
2022/01/27 16:23:20;;;;;;;;;;;;;;;;;;4992905;28;907;-76
2022/01/27 16:25:45;;;;;;;;;;;;;;;;;;4993761;28;1289;-76
2022/01/27 16:28:10;;;;;;;;;;;;;;;;;;4993966;28;919;-77
2022/01/27 16:30:35;;;;;;;;;;;;;;;;;;4992962;28;851;-76
2022/01/27 16:33:01;;;;;;;;;;;;;;;;;;4992675;28;886;-77
2022/01/27 16:35:26;;;;;;;;;;;;;;;;;;4993571;28;1268;-77
2022/01/27 16:37:52;;;;;;;;;;;;;;;;;;4993874;28;1967;-76
2022/01/27 16:40:17;;;;;;;;;;;;;;;;;;4976719;28;1162;-76
2022/01/27 16:42:43;;;;;;;;;;;;;;;;;;4993823;28;890;-77
2022/01/27 16:45:08;;;;;;;;;;;;;;;;;;4992312;28;1311;-77
2022/01/27 16:47:33;;;;;;;;;;;;;;;;;;4992695;28;923;-77
2022/01/27 16:49:59;;;;;;;;;;;;;;;;;;4992514;28;973;-77
2022/01/27 16:52:24;;;;;;;;;;;;;;;;;;4993696;28;1057;-76
2022/01/27 16:54:50;;;;;;;;;;;;;;;;;;4993463;28;1193;-76
2022/01/27 16:57:15;;;;;;;;;;;;;;;;;;4993490;28;1910;-77
2022/01/27 16:59:41;;;;;;;;;;;;;;;;;;4992762;28;1021;-76
2022/01/27 17:02:06;;;;;;;;;;;;;;;;;;4993717;28;787;-77
2022/01/27 17:04:31;;;;;;;;;;;;;;;;;;4993218;28;1031;-76
2022/01/27 17:06:56;;;;;;;;;;;;;;;;;;5012912;28;1216;-76
2022/01/27 17:09:22;;;;;;;;;;;;;;;;;;5013122;28;1005;-76
2022/01/27 17:11:47;;;;;;;;;;;;;;;;;;5013177;28;827;-76
2022/01/27 17:14:13;;;;;;;;;;;;;;;;;;5013122;28;791;-77
2022/01/27 17:16:38;;;;;;;;;;;;;;;;;;5012774;28;1176;-77
2022/01/27 17:19:03;;;;;;;;;;;;;;;;;;5013009;28;1906;-77
2022/01/27 17:21:29;;;;;;;;;;;;;;;;;;5013077;28;916;-76
2022/01/27 17:23:55;;;;;;;;;;;;;;;;;;5013417;28;819;-76
2022/01/27 17:26:20;;;;;;;;;;;;;;;;;;5014033;28;1164;-76
2022/01/27 17:28:46;;;;;;;;;;;;;;;;;;5016830;28;955;-76
2022/01/27 17:31:12;;;;;;;;;;;;;;;;;;5015627;28;1086;-76
2022/01/27 17:33:37;;;;;;;;;;;;;;;;;;5015906;28;865;-75
2022/01/27 17:36:03;;;;;;;;;;;;;;;;;;5016522;28;1149;-76
2022/01/27 17:38:28;;;;;;;;;;;;;;;;;;5016461;28;1911;-76
2022/01/27 17:40:56;;;;;;;;;;;;;;;;;;5016807;28;1207;-76
2022/01/27 17:43:31;;;;;;;;;;;;;;;;;;5016654;28;826;-76
2022/01/27 17:45:57;;;;;;;;;;;;;;;;;;5016291;28;1323;-76
2022/01/27 17:48:22;;;;;;;;;;;;;;;;;;5016412;28;811;-76
2022/01/27 17:50:47;;;;;;;;;;;;;;;;;;5015382;28;1006;-76
2022/01/27 17:53:12;;;;;;;;;;;;;;;;;;5015154;28;1060;-76
2022/01/27 17:55:38;;;;;;;;;;;;;;;;;;5014826;28;1195;-76
2022/01/27 17:58:03;;;;;;;;;;;;;;;;;;5015109;28;1965;-76
2022/01/27 18:00:28;;;;;;;;;;;;;;;;;;5016280;28;998;-76
2022/01/27 18:02:54;;;;;;;;;;;;;;;;;;5016137;28;879;-76
2022/01/27 18:05:19;;;;;;;;;;;;;;;;;;5014738;28;1192;-76
2022/01/27 18:07:46;;;;;;;;;;;;;;;;;;5016227;28;846;-76
2022/01/27 18:10:12;;;;;;;;;;;;;;;;;;5016106;28;784;-76